Terminal Aerodrome Forecast
Issued by NWS Birmingham, AL

Home | Current Version | Previous Version | Text Only | Print | Product List | Glossary On
Versions: 1 2 3 4 5 6 7 8 9 10 11 12 13 14 15 16
818
FTUS44 KBMX 281740
TAFBHM
TAF
KBHM 281740Z 2818/2918 21012G18KT P6SM VCTS BKN040CB
     FM290200 22006KT P6SM SCT050
     FM291500 22006KT P6SM VCTS BKN050CB=

USA.gov is the U.S. government's official web portal to all federal, state and local government web resources and services.